createdAt,value
2023-02-04T00:00:38.795Z,8.30
2023-02-04T00:03:07.286Z,8.20
2023-02-04T00:05:35.418Z,8.20
2023-02-04T00:08:04.973Z,8.30
2023-02-04T00:10:33.378Z,8.20
2023-02-04T00:13:01.700Z,8.20
2023-02-04T00:15:29.786Z,8.20
2023-02-04T00:17:57.868Z,8.20
2023-02-04T00:20:25.828Z,8.20
2023-02-04T00:22:53.820Z,8.10
2023-02-04T00:25:23.162Z,8.20
2023-02-04T00:27:51.217Z,8.10
2023-02-04T00:30:19.300Z,8.10
2023-02-04T00:32:47.260Z,8.10
2023-02-04T00:35:15.242Z,8.10
2023-02-04T00:37:43.244Z,8.10
2023-02-04T00:40:12.448Z,8.00
2023-02-04T00:42:42.540Z,8.00
2023-02-04T00:45:11.218Z,8.00
2023-02-04T00:47:39.738Z,8.00
2023-02-04T00:50:08.305Z,8.00
2023-02-04T00:52:36.277Z,7.90
2023-02-04T00:55:04.481Z,8.00
2023-02-04T00:57:32.455Z,7.90
2023-02-04T01:00:01.764Z,7.90
2023-02-04T01:02:29.779Z,7.90
2023-02-04T01:04:58.783Z,8.00
2023-02-04T01:07:26.918Z,7.90
2023-02-04T01:09:55.513Z,7.90
2023-02-04T01:12:25.973Z,7.90
2023-02-04T01:15:03.040Z,7.90
2023-02-04T01:17:33.939Z,7.90
2023-02-04T01:20:01.945Z,7.90
2023-02-04T01:22:29.957Z,7.90
2023-02-04T01:24:58.161Z,7.80
2023-02-04T01:27:45.373Z,7.80
2023-02-04T01:30:15.445Z,7.80
2023-02-04T01:32:44.903Z,7.80
2023-02-04T01:35:12.846Z,7.80
2023-02-04T01:37:40.806Z,7.80
2023-02-04T01:40:10.360Z,7.80
2023-02-04T01:42:38.641Z,7.80
2023-02-04T01:45:07.663Z,7.80
2023-02-04T01:47:36.137Z,7.70
2023-02-04T01:50:07.316Z,7.70
2023-02-04T01:52:39.777Z,7.70
2023-02-04T01:55:14.880Z,7.70
2023-02-04T01:57:43.090Z,7.70
2023-02-04T02:00:16.614Z,7.70
2023-02-04T02:02:46.615Z,7.70
2023-02-04T02:05:21.134Z,7.70
2023-02-04T02:07:50.396Z,7.70
2023-02-04T02:10:18.980Z,7.60
2023-02-04T02:12:47.482Z,7.70
2023-02-04T02:15:17.657Z,7.60
2023-02-04T02:17:46.359Z,7.60
2023-02-04T02:20:18.542Z,7.60
2023-02-04T02:22:56.800Z,7.60
2023-02-04T02:25:26.199Z,7.60
2023-02-04T02:27:54.674Z,7.50
2023-02-04T02:30:23.524Z,7.50
2023-02-04T02:32:52.955Z,7.50
2023-02-04T02:35:21.607Z,7.40
2023-02-04T02:37:50.826Z,7.40
2023-02-04T02:40:19.538Z,7.40
2023-02-04T02:42:52.584Z,7.40
2023-02-04T02:45:25.022Z,7.30
2023-02-04T02:47:54.290Z,7.30
2023-02-04T02:50:24.934Z,7.30
2023-02-04T02:52:53.493Z,7.20
2023-02-04T02:55:25.520Z,7.20
2023-02-04T02:57:56.129Z,7.10
2023-02-04T03:00:26.818Z,7.10
2023-02-04T03:03:01.000Z,7.20
2023-02-04T03:05:33.812Z,7.10
2023-02-04T03:08:01.981Z,7.10
2023-02-04T03:10:30.326Z,7.10
2023-02-04T03:13:01.173Z,7.20
2023-02-04T03:15:30.968Z,7.20
2023-02-04T03:18:00.164Z,7.20
2023-02-04T03:20:31.181Z,7.20
2023-02-04T03:23:00.197Z,7.20
2023-02-04T03:25:29.193Z,7.10
2023-02-04T03:28:01.010Z,7.10
2023-02-04T03:30:29.377Z,7.10
2023-02-04T03:32:57.900Z,7.00
2023-02-04T03:35:25.895Z,7.00
2023-02-04T03:37:53.946Z,7.00
2023-02-04T03:40:22.001Z,7.00
2023-02-04T03:42:49.985Z,7.10
2023-02-04T03:45:19.997Z,7.10
2023-02-04T03:47:54.923Z,7.00
2023-02-04T03:50:23.956Z,7.00
2023-02-04T03:52:52.563Z,7.00
2023-02-04T03:55:20.617Z,7.00
2023-02-04T03:57:48.633Z,6.90
2023-02-04T04:00:16.867Z,6.90
2023-02-04T04:02:47.151Z,6.90
2023-02-04T04:05:15.162Z,6.80
2023-02-04T04:07:43.140Z,6.80
2023-02-04T04:10:11.789Z,6.80
2023-02-04T04:12:39.783Z,6.70
2023-02-04T04:15:08.510Z,6.70
2023-02-04T04:17:36.660Z,6.60
2023-02-04T04:20:06.883Z,6.50
2023-02-04T04:22:34.909Z,6.50
2023-02-04T04:25:02.980Z,6.40
2023-02-04T04:27:31.050Z,6.40
2023-02-04T04:29:59.143Z,6.40
2023-02-04T04:32:27.138Z,6.40
2023-02-04T04:34:55.126Z,6.40
2023-02-04T04:37:24.446Z,6.40
2023-02-04T04:39:52.492Z,6.30
2023-02-04T04:42:20.478Z,6.30
2023-02-04T04:44:48.523Z,6.20
2023-02-04T04:47:16.592Z,6.20
2023-02-04T04:49:44.546Z,6.20
2023-02-04T04:52:12.570Z,6.10
2023-02-04T04:54:41.898Z,6.10
2023-02-04T04:57:11.926Z,6.10
2023-02-04T04:59:39.915Z,6.10
2023-02-04T05:02:07.901Z,6.10
2023-02-04T05:04:35.920Z,6.00
2023-02-04T05:07:04.338Z,6.00
2023-02-04T05:09:32.348Z,6.00
2023-02-04T05:12:02.732Z,5.90
2023-02-04T05:14:30.696Z,5.90
2023-02-04T05:16:58.660Z,5.90
2023-02-04T05:19:26.667Z,5.80
2023-02-04T05:21:54.709Z,5.80
2023-02-04T05:24:22.680Z,5.80
2023-02-04T05:26:50.648Z,5.90
2023-02-04T05:29:20.154Z,5.90
2023-02-04T05:31:48.218Z,6.00
2023-02-04T05:34:16.287Z,5.90
2023-02-04T05:36:44.370Z,5.90
2023-02-04T05:39:12.372Z,5.80
2023-02-04T05:41:40.584Z,5.90
2023-02-04T05:44:08.620Z,5.80
2023-02-04T05:46:39.242Z,5.90
2023-02-04T05:49:13.782Z,5.90
2023-02-04T05:51:41.835Z,6.00
2023-02-04T05:54:09.788Z,5.90
2023-02-04T05:56:37.808Z,5.90
2023-02-04T05:59:05.851Z,6.00
2023-02-04T06:01:33.832Z,6.00
2023-02-04T06:04:03.279Z,6.00
2023-02-04T06:06:31.345Z,6.00
2023-02-04T06:08:59.293Z,6.10
2023-02-04T06:11:27.256Z,6.10
2023-02-04T06:13:55.239Z,6.20
2023-02-04T06:16:23.256Z,6.10
2023-02-04T06:18:51.270Z,6.10
2023-02-04T06:21:20.732Z,6.00
2023-02-04T06:23:48.668Z,6.10
2023-02-04T06:26:16.728Z,6.10
2023-02-04T06:28:44.694Z,6.10
2023-02-04T06:31:12.765Z,6.10
2023-02-04T06:33:40.796Z,6.10
2023-02-04T06:36:08.981Z,6.00
2023-02-04T06:38:38.382Z,6.10
2023-02-04T06:41:06.668Z,6.00
2023-02-04T06:43:34.651Z,5.90
2023-02-04T06:46:02.641Z,5.80
2023-02-04T06:48:31.267Z,5.80
2023-02-04T06:50:59.342Z,5.70
2023-02-04T06:53:27.378Z,5.70
2023-02-04T06:55:56.724Z,5.70
2023-02-04T06:58:24.724Z,5.80
2023-02-04T07:00:52.671Z,5.80
2023-02-04T07:03:20.629Z,5.80
2023-02-04T07:05:48.637Z,5.80
2023-02-04T07:08:16.746Z,5.80
2023-02-04T07:10:44.755Z,5.80
2023-02-04T07:13:14.071Z,5.90
2023-02-04T07:15:42.034Z,5.90
2023-02-04T07:18:10.108Z,5.90
2023-02-04T07:20:38.107Z,6.00
2023-02-04T07:23:06.069Z,5.90
2023-02-04T07:25:34.086Z,5.90
2023-02-04T07:28:05.540Z,6.00
2023-02-04T07:30:35.261Z,5.90
2023-02-04T07:33:03.459Z,6.00
2023-02-04T07:35:31.444Z,6.00
2023-02-04T07:37:59.393Z,6.00
2023-02-04T07:40:27.479Z,6.10
2023-02-04T07:42:55.446Z,6.10
2023-02-04T07:45:24.694Z,6.10
2023-02-04T07:47:54.052Z,6.10
2023-02-04T07:50:22.016Z,6.20
2023-02-04T07:52:50.033Z,6.20
2023-02-04T07:55:18.218Z,6.30
2023-02-04T07:57:46.196Z,6.40
2023-02-04T08:00:16.258Z,6.40
2023-02-04T08:02:44.417Z,6.40
2023-02-04T08:05:14.051Z,6.40
2023-02-04T08:07:42.265Z,6.50
2023-02-04T08:10:11.927Z,6.50
2023-02-04T08:12:40.022Z,6.60
2023-02-04T08:15:08.811Z,6.60
2023-02-04T08:17:36.958Z,6.60
2023-02-04T08:20:05.221Z,6.70
2023-02-04T08:22:35.164Z,6.90
2023-02-04T08:25:03.545Z,6.90
2023-02-04T08:27:31.623Z,7.00
2023-02-04T08:29:59.589Z,7.10
2023-02-04T08:32:29.255Z,7.10
2023-02-04T08:34:57.245Z,7.30
2023-02-04T08:37:25.425Z,7.30
2023-02-04T08:39:55.913Z,7.40
2023-02-04T08:42:27.127Z,7.40
2023-02-04T08:44:55.138Z,7.50
2023-02-04T08:47:23.123Z,7.50
2023-02-04T08:49:51.122Z,7.60
2023-02-04T08:52:19.241Z,7.70
2023-02-04T08:54:47.239Z,7.60
2023-02-04T08:57:16.634Z,7.60
2023-02-04T09:02:53.197Z,7.60
2023-02-04T09:05:21.123Z,7.70
2023-02-04T09:07:49.424Z,7.70
2023-02-04T09:10:18.530Z,7.80
2023-02-04T09:12:48.115Z,7.80
2023-02-04T09:15:16.341Z,7.90
2023-02-04T09:17:44.418Z,8.00
2023-02-04T09:20:13.268Z,8.10
2023-02-04T09:22:41.286Z,8.00
2023-02-04T09:25:10.113Z,8.00
2023-02-04T09:27:38.084Z,8.20
2023-02-04T09:30:08.463Z,8.40
2023-02-04T09:32:36.444Z,8.50
2023-02-04T09:35:04.654Z,8.40
2023-02-04T09:37:32.667Z,8.50
2023-02-04T09:40:00.637Z,8.70
2023-02-04T09:42:29.854Z,8.90
2023-02-04T09:45:00.666Z,8.90
2023-02-04T09:47:30.578Z,9.00
2023-02-04T09:49:58.752Z,9.00
2023-02-04T09:52:28.681Z,9.00
2023-02-04T09:54:56.654Z,9.00
2023-02-04T09:57:24.650Z,9.10
2023-02-04T09:59:52.936Z,9.20
2023-02-04T10:02:24.076Z,9.00
2023-02-04T10:04:57.586Z,9.40
2023-02-04T10:07:27.377Z,10.00
2023-02-04T10:09:56.042Z,10.20
2023-02-04T10:12:24.047Z,10.30
2023-02-04T10:14:52.735Z,10.30
2023-02-04T10:17:24.189Z,10.10
2023-02-04T10:19:53.725Z,9.90
2023-02-04T10:22:23.637Z,9.80
2023-02-04T10:24:51.670Z,9.80
2023-02-04T10:27:20.498Z,9.70
2023-02-04T10:29:57.605Z,9.70
2023-02-04T10:32:30.517Z,9.70
2023-02-04T10:35:03.014Z,10.00
2023-02-04T10:37:32.074Z,10.10
2023-02-04T10:40:00.152Z,10.50
2023-02-04T10:42:29.845Z,10.60
2023-02-04T10:44:58.737Z,10.40
2023-02-04T10:47:30.774Z,10.60
2023-02-04T10:50:04.717Z,10.50
2023-02-04T10:52:38.262Z,10.40
2023-02-04T10:55:08.616Z,10.20
2023-02-04T10:57:40.645Z,10.20
2023-02-04T11:00:17.022Z,10.30
2023-02-04T11:02:46.904Z,10.20
2023-02-04T11:05:18.801Z,10.20
2023-02-04T11:07:48.147Z,10.30
2023-02-04T11:10:18.235Z,10.50
2023-02-04T11:12:47.961Z,10.30
2023-02-04T11:15:44.542Z,10.40
2023-02-04T11:18:14.435Z,10.40
2023-02-04T11:20:43.951Z,10.60
2023-02-04T11:23:32.242Z,10.50
2023-02-04T11:26:07.372Z,10.40
2023-02-04T11:28:57.492Z,10.60
2023-02-04T11:31:46.518Z,10.70
2023-02-04T11:34:28.542Z,10.70
2023-02-04T11:37:12.175Z,11.00
2023-02-04T11:39:42.392Z,11.40
2023-02-04T11:42:37.125Z,11.70
2023-02-04T11:45:14.983Z,12.30
2023-02-04T11:47:43.830Z,13.60
2023-02-04T11:50:17.027Z,14.70
2023-02-04T11:52:49.109Z,15.10
2023-02-04T11:55:19.168Z,15.40
2023-02-04T11:57:57.148Z,15.80
2023-02-04T12:00:31.448Z,15.80
2023-02-04T12:03:02.221Z,16.60
2023-02-04T12:05:44.268Z,16.40
2023-02-04T12:08:25.720Z,15.30
2023-02-04T12:11:03.267Z,15.00
2023-02-04T12:13:32.226Z,14.90
2023-02-04T12:16:01.773Z,14.20
2023-02-04T12:18:30.702Z,14.10
2023-02-04T12:20:59.321Z,13.90
2023-02-04T12:23:30.442Z,13.90
2023-02-04T12:26:01.851Z,13.80
2023-02-04T12:28:30.184Z,13.50
2023-02-04T12:30:58.450Z,13.10
2023-02-04T12:33:26.761Z,12.80
2023-02-04T12:35:54.941Z,12.50
2023-02-04T12:38:22.938Z,12.10
2023-02-04T12:40:52.292Z,11.80
2023-02-04T12:43:20.297Z,12.10
2023-02-04T12:45:50.737Z,12.10
2023-02-04T12:48:18.821Z,11.90
2023-02-04T12:50:46.819Z,11.60
2023-02-04T12:53:14.849Z,11.70
2023-02-04T12:55:42.830Z,11.60
2023-02-04T12:58:12.239Z,11.50
2023-02-04T13:00:40.969Z,11.60
2023-02-04T13:03:09.123Z,11.60
2023-02-04T13:05:37.157Z,11.80
2023-02-04T13:08:05.537Z,11.60
2023-02-04T13:10:33.511Z,11.40
2023-02-04T13:13:04.066Z,11.30
2023-02-04T13:15:33.968Z,11.40
2023-02-04T13:18:02.150Z,11.50
2023-02-04T13:20:30.290Z,11.40
2023-02-04T13:22:58.263Z,11.50
2023-02-04T13:25:26.283Z,11.20
2023-02-04T13:27:54.265Z,11.30
2023-02-04T13:30:22.421Z,11.40
2023-02-04T13:32:51.806Z,11.30
2023-02-04T13:35:20.366Z,11.30
2023-02-04T13:37:48.374Z,11.30
2023-02-04T13:40:16.415Z,11.40
2023-02-04T13:42:44.441Z,11.50
2023-02-04T13:45:13.168Z,11.60
2023-02-04T13:47:41.155Z,11.80
2023-02-04T13:50:11.114Z,11.70
2023-02-04T13:52:39.371Z,11.30
2023-02-04T13:55:07.955Z,11.20
2023-02-04T13:57:37.309Z,11.50
2023-02-04T14:00:06.809Z,11.50
2023-02-04T14:02:40.467Z,11.50
2023-02-04T14:05:09.937Z,11.60
2023-02-04T14:07:37.907Z,11.60
2023-02-04T14:10:06.764Z,11.70
2023-02-04T14:12:35.170Z,11.80
2023-02-04T14:15:03.143Z,11.50
2023-02-04T14:17:31.169Z,11.40
2023-02-04T14:19:59.125Z,11.40
2023-02-04T14:22:28.565Z,11.50
2023-02-04T14:24:56.537Z,11.30
2023-02-04T14:27:24.506Z,11.20
2023-02-04T14:29:52.512Z,11.30
2023-02-04T14:32:20.874Z,11.10
2023-02-04T14:34:48.866Z,10.80
2023-02-04T14:37:16.812Z,10.80
2023-02-04T14:39:46.210Z,10.70
2023-02-04T14:42:14.172Z,10.60
2023-02-04T14:44:42.130Z,10.70
2023-02-04T14:47:10.121Z,10.70
2023-02-04T14:49:38.202Z,10.70
2023-02-04T14:52:06.515Z,10.60
2023-02-04T14:54:35.486Z,10.50
2023-02-04T14:57:05.071Z,10.50
2023-02-04T14:59:33.414Z,10.50
2023-02-04T15:02:01.461Z,10.50
2023-02-04T15:04:29.594Z,10.70
2023-02-04T15:06:59.493Z,10.60
2023-02-04T15:09:27.496Z,10.50
2023-02-04T15:11:55.780Z,10.40
2023-02-04T15:14:25.176Z,10.40
2023-02-04T15:16:53.705Z,10.40
2023-02-04T15:19:23.584Z,10.30
2023-02-04T15:21:51.856Z,10.20
2023-02-04T15:24:19.823Z,10.10
2023-02-04T15:26:47.825Z,10.00
2023-02-04T15:29:15.801Z,10.00
2023-02-04T15:31:45.293Z,10.00
2023-02-04T15:34:13.444Z,10.00
2023-02-04T15:36:41.452Z,9.90
2023-02-04T15:39:10.753Z,9.90
2023-02-04T15:41:38.750Z,9.80
2023-02-04T15:44:06.744Z,9.80
2023-02-04T15:46:35.282Z,9.70
2023-02-04T15:49:04.814Z,9.70
2023-02-04T15:51:32.840Z,9.40
2023-02-04T15:54:00.851Z,9.30
2023-02-04T15:56:28.841Z,9.20
2023-02-04T15:58:56.913Z,9.10
2023-02-04T16:01:24.943Z,9.00
2023-02-04T16:03:56.521Z,8.90
2023-02-04T16:06:25.961Z,8.80
2023-02-04T16:08:54.170Z,8.70
2023-02-04T16:11:22.147Z,8.60
2023-02-04T16:13:50.166Z,8.50
2023-02-04T16:16:18.344Z,8.50
2023-02-04T16:18:46.353Z,8.40
2023-02-04T16:21:14.335Z,8.40
2023-02-04T16:23:43.699Z,8.40
2023-02-04T16:26:11.680Z,8.40
2023-02-04T16:28:39.640Z,8.40
2023-02-04T16:31:09.634Z,8.40
2023-02-04T16:33:37.844Z,8.50
2023-02-04T16:36:08.232Z,8.50
2023-02-04T16:38:38.805Z,8.50
2023-02-04T16:41:09.085Z,8.40
2023-02-04T16:43:37.123Z,8.30
2023-02-04T16:46:05.551Z,8.30
2023-02-04T16:48:33.580Z,8.20
2023-02-04T16:51:01.550Z,8.20
2023-02-04T16:53:29.496Z,8.10
2023-02-04T16:56:00.395Z,8.10
2023-02-04T16:58:29.948Z,8.10
2023-02-04T17:00:59.684Z,8.10
2023-02-04T17:03:28.436Z,8.10
2023-02-04T17:05:56.782Z,8.00
2023-02-04T17:08:24.801Z,8.10
2023-02-04T17:11:10.912Z,8.00
2023-02-04T17:13:40.354Z,8.10
2023-02-04T17:16:08.535Z,8.10
2023-02-04T17:18:36.844Z,8.10
2023-02-04T17:21:05.041Z,8.20
2023-02-04T17:23:33.232Z,8.20
2023-02-04T17:26:01.242Z,8.20
2023-02-04T17:28:29.264Z,8.20
2023-02-04T17:33:48.070Z,8.30
2023-02-04T17:36:16.287Z,8.30
2023-02-04T17:38:44.274Z,8.20
2023-02-04T17:41:15.464Z,8.20
2023-02-04T17:43:43.401Z,8.20
2023-02-04T17:46:12.719Z,8.20
2023-02-04T17:48:41.376Z,8.10
2023-02-04T17:51:09.606Z,8.10
2023-02-04T17:53:40.388Z,8.10
2023-02-04T17:56:11.905Z,8.10
2023-02-04T17:58:47.827Z,8.20
2023-02-04T18:01:21.742Z,8.10
2023-02-04T18:03:56.454Z,8.10
2023-02-04T18:06:28.377Z,8.10
2023-02-04T18:09:13.572Z,8.10
2023-02-04T18:11:45.643Z,8.00
2023-02-04T18:14:17.857Z,8.00
2023-02-04T18:16:47.528Z,8.00
2023-02-04T18:19:19.753Z,8.00
2023-02-04T18:21:48.975Z,8.00
2023-02-04T18:24:20.344Z,7.90
2023-02-04T18:26:51.522Z,8.00
2023-02-04T18:29:30.843Z,7.90
2023-02-04T18:32:02.677Z,7.90
2023-02-04T18:34:36.278Z,7.70
2023-02-04T18:37:27.996Z,7.50
2023-02-04T18:40:23.925Z,7.40
2023-02-04T18:43:17.413Z,7.30
2023-02-04T18:45:46.636Z,7.20
2023-02-04T18:48:57.948Z,7.10
2023-02-04T18:51:42.166Z,7.10
2023-02-04T18:54:41.824Z,7.00
2023-02-04T18:57:33.121Z,7.00
2023-02-04T19:00:33.427Z,6.90
2023-02-04T19:03:11.267Z,6.80
2023-02-04T19:05:50.434Z,6.80
2023-02-04T19:08:26.776Z,6.80
2023-02-04T19:10:56.597Z,6.70
2023-02-04T19:13:27.187Z,6.60
2023-02-04T19:16:04.721Z,6.60
2023-02-04T19:18:38.327Z,6.60
2023-02-04T19:21:22.777Z,6.60
2023-02-04T19:24:09.291Z,6.70
2023-02-04T19:26:41.579Z,6.60
2023-02-04T19:29:55.232Z,6.50
2023-02-04T19:32:28.514Z,6.30
2023-02-04T19:35:01.290Z,6.20
2023-02-04T19:37:38.582Z,6.20
2023-02-04T19:40:39.524Z,6.30
2023-02-04T19:43:37.266Z,6.20
2023-02-04T19:46:19.586Z,6.20
2023-02-04T19:48:48.559Z,6.10
2023-02-04T19:51:25.924Z,6.10
2023-02-04T19:53:59.213Z,6.10
2023-02-04T19:56:40.558Z,6.10
2023-02-04T19:59:25.600Z,6.20
2023-02-04T20:02:00.759Z,6.20
2023-02-04T20:04:43.626Z,6.20
2023-02-04T20:07:20.154Z,6.20
2023-02-04T20:09:48.745Z,6.20
2023-02-04T20:12:20.065Z,6.20
2023-02-04T20:14:52.506Z,6.20
2023-02-04T20:17:42.602Z,6.30
2023-02-04T20:20:23.499Z,6.30
2023-02-04T20:22:53.512Z,6.20
2023-02-04T20:25:39.401Z,6.20
2023-02-04T20:28:26.746Z,6.40
2023-02-04T20:30:59.534Z,6.30
2023-02-04T20:33:35.923Z,6.30
2023-02-04T20:36:34.698Z,6.30
2023-02-04T20:39:42.582Z,6.40
2023-02-04T20:42:38.898Z,6.50
2023-02-04T20:45:29.776Z,6.50
2023-02-04T20:48:01.255Z,6.50
2023-02-04T20:50:41.188Z,6.50
2023-02-04T20:53:39.637Z,6.60
2023-02-04T20:56:24.109Z,6.60
2023-02-04T20:58:53.812Z,6.60
2023-02-04T21:01:30.644Z,6.60
2023-02-04T21:03:59.312Z,6.50
2023-02-04T21:06:29.967Z,6.50
2023-02-04T21:08:59.088Z,6.50
2023-02-04T21:11:27.796Z,6.40
2023-02-04T21:13:57.601Z,6.40
2023-02-04T21:16:27.494Z,6.30
2023-02-04T21:18:56.940Z,6.30
2023-02-04T21:21:25.431Z,6.30
2023-02-04T21:23:53.508Z,6.20
2023-02-04T21:26:23.707Z,6.30
2023-02-04T21:28:51.745Z,6.30
2023-02-04T21:31:20.260Z,6.30
2023-02-04T21:33:50.972Z,6.30
2023-02-04T21:36:19.203Z,6.40
2023-02-04T21:38:48.090Z,6.40
2023-02-04T21:41:16.751Z,6.40
2023-02-04T21:43:44.781Z,6.50
2023-02-04T21:46:13.176Z,6.50
2023-02-04T21:48:43.161Z,6.60
2023-02-04T21:51:14.446Z,6.70
2023-02-04T21:53:44.203Z,6.60
2023-02-04T21:56:12.582Z,6.60
2023-02-04T21:58:41.165Z,6.50
2023-02-04T22:01:10.487Z,6.50
2023-02-04T22:03:38.723Z,6.40
2023-02-04T22:06:07.430Z,6.50
2023-02-04T22:08:37.117Z,6.60
2023-02-04T22:11:05.143Z,6.60
2023-02-04T22:13:33.135Z,6.50
2023-02-04T22:16:01.160Z,6.50
2023-02-04T22:18:29.292Z,6.40
2023-02-04T22:20:57.277Z,6.50
2023-02-04T22:23:25.279Z,6.50
2023-02-04T22:25:54.630Z,6.50
2023-02-04T22:28:22.594Z,6.70
2023-02-04T22:30:51.778Z,6.60
2023-02-04T22:33:21.287Z,6.50
2023-02-04T22:35:49.261Z,6.50
2023-02-04T22:38:19.418Z,6.40
2023-02-04T22:40:48.432Z,6.50
2023-02-04T22:43:17.793Z,6.50
2023-02-04T22:45:45.749Z,6.50
2023-02-04T22:48:13.940Z,6.50
2023-02-04T22:50:41.957Z,6.50
2023-02-04T22:53:09.904Z,6.40
2023-02-04T22:55:37.894Z,6.40
2023-02-04T22:58:05.891Z,6.40
2023-02-04T23:00:35.219Z,6.50
2023-02-04T23:03:03.216Z,6.40
2023-02-04T23:05:31.927Z,6.50
2023-02-04T23:08:00.144Z,6.40
2023-02-04T23:10:28.110Z,6.50
2023-02-04T23:12:56.125Z,6.40
2023-02-04T23:15:24.216Z,6.40
2023-02-04T23:17:57.318Z,6.40
2023-02-04T23:20:25.685Z,6.50
2023-02-04T23:22:54.466Z,6.60
2023-02-04T23:25:23.122Z,6.40
2023-02-04T23:27:51.179Z,6.40
2023-02-04T23:30:19.730Z,6.50
2023-02-04T23:32:47.846Z,6.50
2023-02-04T23:35:17.642Z,6.50
2023-02-04T23:37:45.968Z,6.50
2023-02-04T23:40:14.072Z,6.60
2023-02-04T23:42:42.072Z,6.60
2023-02-04T23:45:10.823Z,6.60
2023-02-04T23:47:38.836Z,6.70
2023-02-04T23:50:07.456Z,6.70
2023-02-04T23:52:36.899Z,6.70
2023-02-04T23:55:05.610Z,6.90
2023-02-04T23:57:33.644Z,6.90
